sensor_id;sensor_type;location;lat;lon;timestamp;temperature;humidity
46309;DHT22;32037;50.820;6.494;2022-08-16T00:02:31;26.70;50.30
46309;DHT22;32037;50.820;6.494;2022-08-16T00:05:04;26.70;50.30
46309;DHT22;32037;50.820;6.494;2022-08-16T00:07:34;26.70;50.20
46309;DHT22;32037;50.820;6.494;2022-08-16T00:10:05;26.70;50.30
46309;DHT22;32037;50.820;6.494;2022-08-16T00:12:47;26.70;50.30
46309;DHT22;32037;50.820;6.494;2022-08-16T00:15:21;26.70;50.20
46309;DHT22;32037;50.820;6.494;2022-08-16T00:18:11;26.70;50.10
46309;DHT22;32037;50.820;6.494;2022-08-16T00:20:42;26.70;50.20
46309;DHT22;32037;50.820;6.494;2022-08-16T00:23:12;26.70;50.20
46309;DHT22;32037;50.820;6.494;2022-08-16T00:25:42;26.70;50.10
46309;DHT22;32037;50.820;6.494;2022-08-16T00:28:31;26.70;50.10
46309;DHT22;32037;50.820;6.494;2022-08-16T00:31:02;26.70;50.10
46309;DHT22;32037;50.820;6.494;2022-08-16T00:33:31;26.70;50.00
46309;DHT22;32037;50.820;6.494;2022-08-16T00:35:59;26.70;50.00
46309;DHT22;32037;50.820;6.494;2022-08-16T00:38:29;26.60;49.90
46309;DHT22;32037;50.820;6.494;2022-08-16T00:41:08;26.70;50.10
46309;DHT22;32037;50.820;6.494;2022-08-16T00:43:40;26.60;50.00
46309;DHT22;32037;50.820;6.494;2022-08-16T00:46:21;26.70;49.90
46309;DHT22;32037;50.820;6.494;2022-08-16T00:49:03;26.60;49.90
46309;DHT22;32037;50.820;6.494;2022-08-16T00:51:32;26.60;49.90
46309;DHT22;32037;50.820;6.494;2022-08-16T00:54:05;26.60;49.70
46309;DHT22;32037;50.820;6.494;2022-08-16T00:56:40;26.60;49.70
46309;DHT22;32037;50.820;6.494;2022-08-16T00:59:29;26.60;49.80
46309;DHT22;32037;50.820;6.494;2022-08-16T01:02:04;26.60;49.80
46309;DHT22;32037;50.820;6.494;2022-08-16T01:04:53;26.60;49.80
46309;DHT22;32037;50.820;6.494;2022-08-16T01:07:40;26.60;49.70
46309;DHT22;32037;50.820;6.494;2022-08-16T01:10:20;26.50;49.70
46309;DHT22;32037;50.820;6.494;2022-08-16T01:13:01;26.50;49.70
46309;DHT22;32037;50.820;6.494;2022-08-16T01:15:34;26.50;49.70
46309;DHT22;32037;50.820;6.494;2022-08-16T01:18:14;26.50;49.70
46309;DHT22;32037;50.820;6.494;2022-08-16T01:21:22;26.50;49.60
46309;DHT22;32037;50.820;6.494;2022-08-16T01:24:15;26.50;49.50
46309;DHT22;32037;50.820;6.494;2022-08-16T01:27:09;26.50;49.50
46309;DHT22;32037;50.820;6.494;2022-08-16T01:29:45;26.50;49.40
46309;DHT22;32037;50.820;6.494;2022-08-16T01:32:27;26.50;49.60
46309;DHT22;32037;50.820;6.494;2022-08-16T01:35:07;26.50;49.60
46309;DHT22;32037;50.820;6.494;2022-08-16T01:37:47;26.40;49.50
46309;DHT22;32037;50.820;6.494;2022-08-16T01:40:27;26.50;49.50
46309;DHT22;32037;50.820;6.494;2022-08-16T01:42:57;26.40;49.40
46309;DHT22;32037;50.820;6.494;2022-08-16T01:45:25;26.50;49.60
46309;DHT22;32037;50.820;6.494;2022-08-16T01:48:10;26.50;49.50
46309;DHT22;32037;50.820;6.494;2022-08-16T01:50:50;26.40;49.40
46309;DHT22;32037;50.820;6.494;2022-08-16T01:53:39;26.40;49.40
46309;DHT22;32037;50.820;6.494;2022-08-16T01:56:27;26.40;49.50
46309;DHT22;32037;50.820;6.494;2022-08-16T01:58:58;26.50;49.40
46309;DHT22;32037;50.820;6.494;2022-08-16T02:01:27;26.40;49.30
46309;DHT22;32037;50.820;6.494;2022-08-16T02:03:59;26.40;49.20
46309;DHT22;32037;50.820;6.494;2022-08-16T02:06:40;26.40;49.20
46309;DHT22;32037;50.820;6.494;2022-08-16T02:09:17;26.40;49.30
46309;DHT22;32037;50.820;6.494;2022-08-16T02:11:52;26.40;49.30
46309;DHT22;32037;50.820;6.494;2022-08-16T02:14:24;26.40;49.20
46309;DHT22;32037;50.820;6.494;2022-08-16T02:16:58;26.40;49.20
46309;DHT22;32037;50.820;6.494;2022-08-16T02:19:30;26.40;49.20
46309;DHT22;32037;50.820;6.494;2022-08-16T02:22:21;26.40;49.20
46309;DHT22;32037;50.820;6.494;2022-08-16T02:25:04;26.30;49.10
46309;DHT22;32037;50.820;6.494;2022-08-16T02:27:37;26.30;49.00
46309;DHT22;32037;50.820;6.494;2022-08-16T02:30:11;26.40;49.10
46309;DHT22;32037;50.820;6.494;2022-08-16T02:33:01;26.30;49.10
46309;DHT22;32037;50.820;6.494;2022-08-16T02:35:32;26.30;49.10
46309;DHT22;32037;50.820;6.494;2022-08-16T02:38:22;26.30;49.10
46309;DHT22;32037;50.820;6.494;2022-08-16T02:40:52;26.30;49.00
46309;DHT22;32037;50.820;6.494;2022-08-16T02:43:23;26.30;49.10
46309;DHT22;32037;50.820;6.494;2022-08-16T02:45:55;26.30;48.90
46309;DHT22;32037;50.820;6.494;2022-08-16T02:48:24;26.30;49.00
46309;DHT22;32037;50.820;6.494;2022-08-16T02:50:58;26.30;48.90
46309;DHT22;32037;50.820;6.494;2022-08-16T02:53:40;26.30;49.00
46309;DHT22;32037;50.820;6.494;2022-08-16T02:56:11;26.30;49.00
46309;DHT22;32037;50.820;6.494;2022-08-16T02:58:44;26.30;48.90
46309;DHT22;32037;50.820;6.494;2022-08-16T03:01:19;26.30;48.90
46309;DHT22;32037;50.820;6.494;2022-08-16T03:04:06;26.30;48.90
46309;DHT22;32037;50.820;6.494;2022-08-16T03:06:55;26.30;48.90
46309;DHT22;32037;50.820;6.494;2022-08-16T03:09:42;26.20;48.90
46309;DHT22;32037;50.820;6.494;2022-08-16T03:12:14;26.20;48.80
46309;DHT22;32037;50.820;6.494;2022-08-16T03:14:46;26.20;48.70
46309;DHT22;32037;50.820;6.494;2022-08-16T03:17:18;26.20;48.70
46309;DHT22;32037;50.820;6.494;2022-08-16T03:19:53;26.20;48.80
46309;DHT22;32037;50.820;6.494;2022-08-16T03:22:32;26.20;48.90
46309;DHT22;32037;50.820;6.494;2022-08-16T03:25:07;26.20;48.70
46309;DHT22;32037;50.820;6.494;2022-08-16T03:27:40;26.20;48.80
46309;DHT22;32037;50.820;6.494;2022-08-16T03:30:17;26.20;48.80
46309;DHT22;32037;50.820;6.494;2022-08-16T03:32:54;26.20;48.80
46309;DHT22;32037;50.820;6.494;2022-08-16T03:35:28;26.20;48.90
46309;DHT22;32037;50.820;6.494;2022-08-16T03:38:10;26.10;48.70
46309;DHT22;32037;50.820;6.494;2022-08-16T03:41:05;26.10;48.60
46309;DHT22;32037;50.820;6.494;2022-08-16T03:43:54;26.20;48.90
46309;DHT22;32037;50.820;6.494;2022-08-16T03:46:30;26.10;50.00
46309;DHT22;32037;50.820;6.494;2022-08-16T03:49:28;26.10;48.60
46309;DHT22;32037;50.820;6.494;2022-08-16T03:52:04;26.10;48.60
46309;DHT22;32037;50.820;6.494;2022-08-16T03:54:34;26.10;48.60
46309;DHT22;32037;50.820;6.494;2022-08-16T03:57:04;26.10;48.70
46309;DHT22;32037;50.820;6.494;2022-08-16T03:59:37;26.10;48.60
46309;DHT22;32037;50.820;6.494;2022-08-16T04:02:14;26.10;48.80
46309;DHT22;32037;50.820;6.494;2022-08-16T04:04:59;26.10;48.60
46309;DHT22;32037;50.820;6.494;2022-08-16T04:07:31;26.10;48.60
46309;DHT22;32037;50.820;6.494;2022-08-16T04:10:01;26.10;48.60
46309;DHT22;32037;50.820;6.494;2022-08-16T04:12:52;26.00;48.50
46309;DHT22;32037;50.820;6.494;2022-08-16T04:15:31;26.00;48.50
46309;DHT22;32037;50.820;6.494;2022-08-16T04:18:34;26.00;48.50
46309;DHT22;32037;50.820;6.494;2022-08-16T04:21:05;26.00;48.50
46309;DHT22;32037;50.820;6.494;2022-08-16T04:23:33;26.00;48.50
46309;DHT22;32037;50.820;6.494;2022-08-16T04:26:05;26.00;48.60
46309;DHT22;32037;50.820;6.494;2022-08-16T04:28:43;26.00;48.40
46309;DHT22;32037;50.820;6.494;2022-08-16T04:31:23;26.00;48.40
46309;DHT22;32037;50.820;6.494;2022-08-16T04:33:59;26.00;48.50
46309;DHT22;32037;50.820;6.494;2022-08-16T04:36:30;25.90;48.50
46309;DHT22;32037;50.820;6.494;2022-08-16T04:38:58;26.00;48.50
46309;DHT22;32037;50.820;6.494;2022-08-16T04:41:27;25.90;48.40
46309;DHT22;32037;50.820;6.494;2022-08-16T04:44:07;26.00;48.60
46309;DHT22;32037;50.820;6.494;2022-08-16T04:46:56;25.90;48.40
46309;DHT22;32037;50.820;6.494;2022-08-16T04:49:31;25.90;48.40
46309;DHT22;32037;50.820;6.494;2022-08-16T04:52:11;25.90;48.40
46309;DHT22;32037;50.820;6.494;2022-08-16T04:55:00;25.90;48.30
46309;DHT22;32037;50.820;6.494;2022-08-16T04:57:30;25.90;48.20
46309;DHT22;32037;50.820;6.494;2022-08-16T04:59:58;25.90;48.30
46309;DHT22;32037;50.820;6.494;2022-08-16T05:02:48;25.90;48.30
46309;DHT22;32037;50.820;6.494;2022-08-16T05:05:26;25.90;48.30
46309;DHT22;32037;50.820;6.494;2022-08-16T05:08:00;25.90;48.20
46309;DHT22;32037;50.820;6.494;2022-08-16T05:10:55;25.90;48.30
46309;DHT22;32037;50.820;6.494;2022-08-16T05:13:27;25.90;48.40
46309;DHT22;32037;50.820;6.494;2022-08-16T05:16:09;25.90;48.30
46309;DHT22;32037;50.820;6.494;2022-08-16T05:18:50;25.90;48.30
46309;DHT22;32037;50.820;6.494;2022-08-16T05:21:21;25.90;49.50
46309;DHT22;32037;50.820;6.494;2022-08-16T05:23:55;25.80;48.40
46309;DHT22;32037;50.820;6.494;2022-08-16T05:26:29;25.80;48.20
46309;DHT22;32037;50.820;6.494;2022-08-16T05:29:01;25.80;48.20
46309;DHT22;32037;50.820;6.494;2022-08-16T05:31:33;25.80;48.20
46309;DHT22;32037;50.820;6.494;2022-08-16T05:34:10;25.80;48.20
46309;DHT22;32037;50.820;6.494;2022-08-16T05:36:49;25.80;48.20
46309;DHT22;32037;50.820;6.494;2022-08-16T05:39:22;25.80;48.20
46309;DHT22;32037;50.820;6.494;2022-08-16T05:41:53;25.80;48.20
46309;DHT22;32037;50.820;6.494;2022-08-16T05:44:23;25.80;48.20
46309;DHT22;32037;50.820;6.494;2022-08-16T05:46:57;25.80;48.20
46309;DHT22;32037;50.820;6.494;2022-08-16T05:49:29;25.80;48.10
46309;DHT22;32037;50.820;6.494;2022-08-16T05:52:08;25.80;48.10
46309;DHT22;32037;50.820;6.494;2022-08-16T05:54:42;25.80;48.10
46309;DHT22;32037;50.820;6.494;2022-08-16T05:57:17;25.70;48.10
46309;DHT22;32037;50.820;6.494;2022-08-16T05:59:48;25.70;48.20
46309;DHT22;32037;50.820;6.494;2022-08-16T06:02:27;25.70;48.10
46309;DHT22;32037;50.820;6.494;2022-08-16T06:05:01;25.70;48.00
46309;DHT22;32037;50.820;6.494;2022-08-16T06:07:31;25.70;48.10
46309;DHT22;32037;50.820;6.494;2022-08-16T06:10:06;25.80;48.10
46309;DHT22;32037;50.820;6.494;2022-08-16T06:12:37;25.80;48.10
46309;DHT22;32037;50.820;6.494;2022-08-16T06:15:25;25.70;48.00
46309;DHT22;32037;50.820;6.494;2022-08-16T06:18:16;25.70;48.10
46309;DHT22;32037;50.820;6.494;2022-08-16T06:21:05;25.70;48.10
46309;DHT22;32037;50.820;6.494;2022-08-16T06:23:37;25.70;48.10
46309;DHT22;32037;50.820;6.494;2022-08-16T06:26:09;25.70;48.10
46309;DHT22;32037;50.820;6.494;2022-08-16T06:28:43;25.70;48.10
46309;DHT22;32037;50.820;6.494;2022-08-16T06:31:16;25.70;48.10
46309;DHT22;32037;50.820;6.494;2022-08-16T06:33:53;25.70;48.10
46309;DHT22;32037;50.820;6.494;2022-08-16T06:36:24;25.70;48.10
46309;DHT22;32037;50.820;6.494;2022-08-16T06:39:01;25.70;48.10
46309;DHT22;32037;50.820;6.494;2022-08-16T06:41:55;25.70;48.10
46309;DHT22;32037;50.820;6.494;2022-08-16T06:44:49;25.70;48.20
46309;DHT22;32037;50.820;6.494;2022-08-16T06:47:43;25.60;48.00
46309;DHT22;32037;50.820;6.494;2022-08-16T06:50:21;25.60;48.00
46309;DHT22;32037;50.820;6.494;2022-08-16T06:52:57;25.60;48.10
46309;DHT22;32037;50.820;6.494;2022-08-16T06:55:40;25.60;48.10
46309;DHT22;32037;50.820;6.494;2022-08-16T06:58:12;25.60;48.10
46309;DHT22;32037;50.820;6.494;2022-08-16T07:00:59;25.60;48.10
46309;DHT22;32037;50.820;6.494;2022-08-16T07:03:31;25.60;48.10
46309;DHT22;32037;50.820;6.494;2022-08-16T07:06:20;25.60;48.20
46309;DHT22;32037;50.820;6.494;2022-08-16T07:08:56;25.60;48.10
46309;DHT22;32037;50.820;6.494;2022-08-16T07:11:30;25.60;48.10
46309;DHT22;32037;50.820;6.494;2022-08-16T07:14:21;25.60;48.10
46309;DHT22;32037;50.820;6.494;2022-08-16T07:16:57;25.60;48.10
46309;DHT22;32037;50.820;6.494;2022-08-16T07:19:28;25.60;48.20
46309;DHT22;32037;50.820;6.494;2022-08-16T07:22:22;25.60;48.20
46309;DHT22;32037;50.820;6.494;2022-08-16T07:25:15;25.60;48.20
46309;DHT22;32037;50.820;6.494;2022-08-16T07:27:46;25.60;48.20
46309;DHT22;32037;50.820;6.494;2022-08-16T07:30:20;25.60;48.20
46309;DHT22;32037;50.820;6.494;2022-08-16T07:33:13;25.60;48.20
46309;DHT22;32037;50.820;6.494;2022-08-16T07:36:05;25.60;48.20
46309;DHT22;32037;50.820;6.494;2022-08-16T07:38:40;25.60;48.20
46309;DHT22;32037;50.820;6.494;2022-08-16T07:41:10;25.60;48.20
46309;DHT22;32037;50.820;6.494;2022-08-16T07:43:45;25.60;49.60
46309;DHT22;32037;50.820;6.494;2022-08-16T07:46:15;25.60;48.30
46309;DHT22;32037;50.820;6.494;2022-08-16T07:49:10;25.60;48.10
46309;DHT22;32037;50.820;6.494;2022-08-16T07:51:40;25.60;48.20
46309;DHT22;32037;50.820;6.494;2022-08-16T07:54:10;25.50;48.20
46309;DHT22;32037;50.820;6.494;2022-08-16T07:57:00;25.50;48.10
46309;DHT22;32037;50.820;6.494;2022-08-16T07:59:31;25.60;48.10
46309;DHT22;32037;50.820;6.494;2022-08-16T08:02:11;25.50;48.20
46309;DHT22;32037;50.820;6.494;2022-08-16T08:04:48;25.60;48.10
46309;DHT22;32037;50.820;6.494;2022-08-16T08:07:16;25.50;48.20
46309;DHT22;32037;50.820;6.494;2022-08-16T08:09:48;25.50;48.10
46309;DHT22;32037;50.820;6.494;2022-08-16T08:12:17;25.50;48.10
46309;DHT22;32037;50.820;6.494;2022-08-16T08:15:07;25.60;48.10
46309;DHT22;32037;50.820;6.494;2022-08-16T08:17:39;25.50;48.10
46309;DHT22;32037;50.820;6.494;2022-08-16T08:20:20;25.50;48.20
46309;DHT22;32037;50.820;6.494;2022-08-16T08:22:57;25.50;48.20
46309;DHT22;32037;50.820;6.494;2022-08-16T08:25:34;25.50;48.20
46309;DHT22;32037;50.820;6.494;2022-08-16T08:28:23;25.50;48.90
46309;DHT22;32037;50.820;6.494;2022-08-16T08:31:01;25.50;49.80
46309;DHT22;32037;50.820;6.494;2022-08-16T08:33:36;25.50;49.40
46309;DHT22;32037;50.820;6.494;2022-08-16T08:36:10;25.50;49.20
46309;DHT22;32037;50.820;6.494;2022-08-16T08:38:50;25.50;49.40
46309;DHT22;32037;50.820;6.494;2022-08-16T08:41:21;25.50;49.30
46309;DHT22;32037;50.820;6.494;2022-08-16T08:43:57;25.50;49.00
46309;DHT22;32037;50.820;6.494;2022-08-16T08:46:27;25.50;49.00
46309;DHT22;32037;50.820;6.494;2022-08-16T08:49:03;25.50;49.10
46309;DHT22;32037;50.820;6.494;2022-08-16T08:51:40;25.50;48.90
46309;DHT22;32037;50.820;6.494;2022-08-16T08:54:11;25.50;48.90
46309;DHT22;32037;50.820;6.494;2022-08-16T08:56:48;25.50;48.90
46309;DHT22;32037;50.820;6.494;2022-08-16T08:59:36;25.50;48.90
46309;DHT22;32037;50.820;6.494;2022-08-16T09:02:11;25.50;49.00
46309;DHT22;32037;50.820;6.494;2022-08-16T09:04:50;25.50;49.00
46309;DHT22;32037;50.820;6.494;2022-08-16T09:07:20;25.50;49.00
46309;DHT22;32037;50.820;6.494;2022-08-16T09:09:52;25.50;48.90
46309;DHT22;32037;50.820;6.494;2022-08-16T09:12:36;25.40;48.80
46309;DHT22;32037;50.820;6.494;2022-08-16T09:15:10;25.50;49.00
46309;DHT22;32037;50.820;6.494;2022-08-16T09:17:46;25.50;48.90
46309;DHT22;32037;50.820;6.494;2022-08-16T09:20:24;25.50;49.00
46309;DHT22;32037;50.820;6.494;2022-08-16T09:22:53;25.40;48.90
46309;DHT22;32037;50.820;6.494;2022-08-16T09:25:28;25.40;49.00
46309;DHT22;32037;50.820;6.494;2022-08-16T09:28:04;25.40;49.10
46309;DHT22;32037;50.820;6.494;2022-08-16T09:30:41;25.40;49.10
46309;DHT22;32037;50.820;6.494;2022-08-16T09:33:17;25.40;49.00
46309;DHT22;32037;50.820;6.494;2022-08-16T09:35:48;25.50;49.10
46309;DHT22;32037;50.820;6.494;2022-08-16T09:38:20;25.40;49.10
46309;DHT22;32037;50.820;6.494;2022-08-16T09:40:59;25.40;49.10
46309;DHT22;32037;50.820;6.494;2022-08-16T09:43:29;25.40;49.10
46309;DHT22;32037;50.820;6.494;2022-08-16T09:46:17;25.40;49.10
46309;DHT22;32037;50.820;6.494;2022-08-16T09:49:08;25.40;49.10
46309;DHT22;32037;50.820;6.494;2022-08-16T09:51:38;25.40;49.20
46309;DHT22;32037;50.820;6.494;2022-08-16T09:54:06;25.40;49.10
46309;DHT22;32037;50.820;6.494;2022-08-16T09:56:47;25.40;49.20
46309;DHT22;32037;50.820;6.494;2022-08-16T09:59:20;25.40;49.10
46309;DHT22;32037;50.820;6.494;2022-08-16T10:01:52;25.40;49.10
46309;DHT22;32037;50.820;6.494;2022-08-16T10:04:24;25.40;49.10
46309;DHT22;32037;50.820;6.494;2022-08-16T10:06:59;25.40;49.10
46309;DHT22;32037;50.820;6.494;2022-08-16T10:09:28;25.40;49.30
46309;DHT22;32037;50.820;6.494;2022-08-16T10:12:17;25.40;49.10
46309;DHT22;32037;50.820;6.494;2022-08-16T10:15:10;25.40;49.20
46309;DHT22;32037;50.820;6.494;2022-08-16T10:17:44;25.40;49.20
46309;DHT22;32037;50.820;6.494;2022-08-16T10:20:31;25.40;49.20
46309;DHT22;32037;50.820;6.494;2022-08-16T10:23:05;25.40;49.20
46309;DHT22;32037;50.820;6.494;2022-08-16T10:25:37;25.40;49.20
46309;DHT22;32037;50.820;6.494;2022-08-16T10:28:28;25.40;49.20
46309;DHT22;32037;50.820;6.494;2022-08-16T10:31:07;25.40;49.30
46309;DHT22;32037;50.820;6.494;2022-08-16T10:33:43;25.40;49.20
46309;DHT22;32037;50.820;6.494;2022-08-16T10:36:16;25.40;49.30
46309;DHT22;32037;50.820;6.494;2022-08-16T10:39:05;25.40;49.30
46309;DHT22;32037;50.820;6.494;2022-08-16T10:41:36;25.40;49.30
46309;DHT22;32037;50.820;6.494;2022-08-16T10:44:05;25.40;49.40
46309;DHT22;32037;50.820;6.494;2022-08-16T10:46:35;25.40;49.40
46309;DHT22;32037;50.820;6.494;2022-08-16T10:49:09;25.40;49.40
46309;DHT22;32037;50.820;6.494;2022-08-16T10:51:39;25.40;49.30
46309;DHT22;32037;50.820;6.494;2022-08-16T10:54:28;25.40;49.40
46309;DHT22;32037;50.820;6.494;2022-08-16T10:56:57;25.40;49.30
46309;DHT22;32037;50.820;6.494;2022-08-16T10:59:30;25.40;49.30
46309;DHT22;32037;50.820;6.494;2022-08-16T11:02:16;25.40;49.30
46309;DHT22;32037;50.820;6.494;2022-08-16T11:05:08;25.40;49.30
46309;DHT22;32037;50.820;6.494;2022-08-16T11:07:43;25.40;49.40
46309;DHT22;32037;50.820;6.494;2022-08-16T11:10:25;25.40;49.30
46309;DHT22;32037;50.820;6.494;2022-08-16T11:13:16;25.40;49.30
46309;DHT22;32037;50.820;6.494;2022-08-16T11:16:09;25.40;49.30
46309;DHT22;32037;50.820;6.494;2022-08-16T11:18:57;25.40;49.30
46309;DHT22;32037;50.820;6.494;2022-08-16T11:21:32;25.40;49.30
46309;DHT22;32037;50.820;6.494;2022-08-16T11:24:25;25.40;49.30
46309;DHT22;32037;50.820;6.494;2022-08-16T11:27:12;25.40;49.30
46309;DHT22;32037;50.820;6.494;2022-08-16T11:29:46;25.40;49.30
46309;DHT22;32037;50.820;6.494;2022-08-16T11:32:14;25.40;49.20
46309;DHT22;32037;50.820;6.494;2022-08-16T11:34:48;25.40;49.30
46309;DHT22;32037;50.820;6.494;2022-08-16T11:37:38;25.40;49.30
46309;DHT22;32037;50.820;6.494;2022-08-16T11:40:31;25.40;49.40
46309;DHT22;32037;50.820;6.494;2022-08-16T11:43:02;25.40;49.40
46309;DHT22;32037;50.820;6.494;2022-08-16T11:45:32;25.40;49.30
46309;DHT22;32037;50.820;6.494;2022-08-16T11:48:04;25.40;49.20
46309;DHT22;32037;50.820;6.494;2022-08-16T11:50:33;25.40;49.20
46309;DHT22;32037;50.820;6.494;2022-08-16T11:53:03;25.40;49.20
46309;DHT22;32037;50.820;6.494;2022-08-16T11:55:36;25.40;50.40
46309;DHT22;32037;50.820;6.494;2022-08-16T11:58:10;25.40;49.20
46309;DHT22;32037;50.820;6.494;2022-08-16T12:00:43;25.40;49.10
46309;DHT22;32037;50.820;6.494;2022-08-16T12:03:20;25.40;49.20
46309;DHT22;32037;50.820;6.494;2022-08-16T12:06:07;25.40;49.10
46309;DHT22;32037;50.820;6.494;2022-08-16T12:08:53;25.50;49.10
46309;DHT22;32037;50.820;6.494;2022-08-16T12:11:29;25.50;49.20
46309;DHT22;32037;50.820;6.494;2022-08-16T12:13:59;25.50;49.20
46309;DHT22;32037;50.820;6.494;2022-08-16T12:16:31;25.50;49.10
46309;DHT22;32037;50.820;6.494;2022-08-16T12:19:02;25.50;49.10
46309;DHT22;32037;50.820;6.494;2022-08-16T12:24:22;25.50;49.00
46309;DHT22;32037;50.820;6.494;2022-08-16T12:26:54;25.50;49.10
46309;DHT22;32037;50.820;6.494;2022-08-16T12:29:26;25.50;49.00
46309;DHT22;32037;50.820;6.494;2022-08-16T12:31:58;25.50;49.00
46309;DHT22;32037;50.820;6.494;2022-08-16T12:34:47;25.50;49.10
46309;DHT22;32037;50.820;6.494;2022-08-16T12:37:20;25.50;49.00
46309;DHT22;32037;50.820;6.494;2022-08-16T12:39:50;25.50;48.90
46309;DHT22;32037;50.820;6.494;2022-08-16T12:42:22;25.60;49.00
46309;DHT22;32037;50.820;6.494;2022-08-16T12:45:03;25.60;49.00
46309;DHT22;32037;50.820;6.494;2022-08-16T12:47:32;25.60;49.00
46309;DHT22;32037;50.820;6.494;2022-08-16T12:50:38;25.50;48.90
46309;DHT22;32037;50.820;6.494;2022-08-16T12:53:07;25.50;49.00
46309;DHT22;32037;50.820;6.494;2022-08-16T12:55:36;25.60;49.00
46309;DHT22;32037;50.820;6.494;2022-08-16T12:58:10;25.60;49.00
46309;DHT22;32037;50.820;6.494;2022-08-16T13:01:00;25.60;49.00
46309;DHT22;32037;50.820;6.494;2022-08-16T13:03:28;25.60;48.90
46309;DHT22;32037;50.820;6.494;2022-08-16T13:06:06;25.60;48.90
46309;DHT22;32037;50.820;6.494;2022-08-16T13:08:35;25.60;48.90
46309;DHT22;32037;50.820;6.494;2022-08-16T13:11:03;25.60;48.90
46309;DHT22;32037;50.820;6.494;2022-08-16T13:13:35;25.60;48.90
46309;DHT22;32037;50.820;6.494;2022-08-16T13:16:04;25.60;48.90
46309;DHT22;32037;50.820;6.494;2022-08-16T13:18:46;25.60;48.90
46309;DHT22;32037;50.820;6.494;2022-08-16T13:21:20;25.60;48.90
46309;DHT22;32037;50.820;6.494;2022-08-16T13:23:51;25.60;48.90
46309;DHT22;32037;50.820;6.494;2022-08-16T13:26:22;25.60;48.80
46309;DHT22;32037;50.820;6.494;2022-08-16T13:28:54;25.60;48.80
46309;DHT22;32037;50.820;6.494;2022-08-16T13:31:23;25.60;48.70
46309;DHT22;32037;50.820;6.494;2022-08-16T13:33:52;25.70;48.70
46309;DHT22;32037;50.820;6.494;2022-08-16T13:36:25;25.70;48.70
46309;DHT22;32037;50.820;6.494;2022-08-16T13:39:15;25.70;48.80
46309;DHT22;32037;50.820;6.494;2022-08-16T13:41:44;25.70;48.70
46309;DHT22;32037;50.820;6.494;2022-08-16T13:44:21;25.70;49.00
46309;DHT22;32037;50.820;6.494;2022-08-16T13:47:10;25.70;48.70
46309;DHT22;32037;50.820;6.494;2022-08-16T13:49:39;25.70;48.60
46309;DHT22;32037;50.820;6.494;2022-08-16T13:52:10;25.70;48.50
46309;DHT22;32037;50.820;6.494;2022-08-16T13:54:39;25.70;48.60
46309;DHT22;32037;50.820;6.494;2022-08-16T13:57:08;25.70;48.50
46309;DHT22;32037;50.820;6.494;2022-08-16T13:59:39;25.70;48.50
46309;DHT22;32037;50.820;6.494;2022-08-16T14:02:11;25.70;48.60
46309;DHT22;32037;50.820;6.494;2022-08-16T14:04:41;25.70;48.50
46309;DHT22;32037;50.820;6.494;2022-08-16T14:07:14;25.80;48.50
46309;DHT22;32037;50.820;6.494;2022-08-16T14:09:50;25.70;48.50
46309;DHT22;32037;50.820;6.494;2022-08-16T14:12:23;25.80;48.40
46309;DHT22;32037;50.820;6.494;2022-08-16T14:14:57;25.80;48.50
46309;DHT22;32037;50.820;6.494;2022-08-16T14:17:27;25.80;48.60
46309;DHT22;32037;50.820;6.494;2022-08-16T14:20:05;25.80;48.50
46309;DHT22;32037;50.820;6.494;2022-08-16T14:22:45;25.80;48.30
46309;DHT22;32037;50.820;6.494;2022-08-16T14:25:20;25.80;48.30
46309;DHT22;32037;50.820;6.494;2022-08-16T14:27:49;25.80;48.40
46309;DHT22;32037;50.820;6.494;2022-08-16T14:30:22;25.80;49.50
46309;DHT22;32037;50.820;6.494;2022-08-16T14:32:52;25.80;48.30
46309;DHT22;32037;50.820;6.494;2022-08-16T14:35:24;25.80;48.30
46309;DHT22;32037;50.820;6.494;2022-08-16T14:38:03;25.90;48.50
46309;DHT22;32037;50.820;6.494;2022-08-16T14:40:32;25.90;48.40
46309;DHT22;32037;50.820;6.494;2022-08-16T14:43:01;25.90;48.40
46309;DHT22;32037;50.820;6.494;2022-08-16T14:45:34;25.90;48.30
46309;DHT22;32037;50.820;6.494;2022-08-16T14:48:04;25.90;48.30
46309;DHT22;32037;50.820;6.494;2022-08-16T14:50:33;25.90;48.30
46309;DHT22;32037;50.820;6.494;2022-08-16T14:53:05;25.90;48.30
46309;DHT22;32037;50.820;6.494;2022-08-16T14:55:36;25.90;49.50
46309;DHT22;32037;50.820;6.494;2022-08-16T14:58:07;25.90;48.40
46309;DHT22;32037;50.820;6.494;2022-08-16T15:00:47;25.90;48.30
46309;DHT22;32037;50.820;6.494;2022-08-16T15:03:18;25.90;48.30
46309;DHT22;32037;50.820;6.494;2022-08-16T15:05:48;25.90;48.20
46309;DHT22;32037;50.820;6.494;2022-08-16T15:08:20;25.90;48.20
46309;DHT22;32037;50.820;6.494;2022-08-16T15:11:03;25.90;48.30
46309;DHT22;32037;50.820;6.494;2022-08-16T15:13:34;25.90;48.20
46309;DHT22;32037;50.820;6.494;2022-08-16T15:16:04;25.90;48.20
46309;DHT22;32037;50.820;6.494;2022-08-16T15:18:33;25.90;48.30
46309;DHT22;32037;50.820;6.494;2022-08-16T15:21:05;25.90;48.20
46309;DHT22;32037;50.820;6.494;2022-08-16T15:23:35;26.00;48.30
46309;DHT22;32037;50.820;6.494;2022-08-16T15:26:07;26.00;48.20
46309;DHT22;32037;50.820;6.494;2022-08-16T15:28:48;26.00;48.20
46309;DHT22;32037;50.820;6.494;2022-08-16T15:31:19;26.00;48.20
46309;DHT22;32037;50.820;6.494;2022-08-16T15:33:49;26.00;48.10
46309;DHT22;32037;50.820;6.494;2022-08-16T15:36:24;26.00;48.20
46309;DHT22;32037;50.820;6.494;2022-08-16T15:38:55;26.00;48.20
46309;DHT22;32037;50.820;6.494;2022-08-16T15:41:58;26.00;48.20
46309;DHT22;32037;50.820;6.494;2022-08-16T15:44:28;26.00;48.10
46309;DHT22;32037;50.820;6.494;2022-08-16T15:47:21;26.00;48.00
46309;DHT22;32037;50.820;6.494;2022-08-16T15:49:54;26.10;48.00
46309;DHT22;32037;50.820;6.494;2022-08-16T15:52:26;26.00;47.90
46309;DHT22;32037;50.820;6.494;2022-08-16T15:54:58;26.10;48.00
46309;DHT22;32037;50.820;6.494;2022-08-16T15:57:47;26.10;47.90
46309;DHT22;32037;50.820;6.494;2022-08-16T16:00:17;26.10;47.80
46309;DHT22;32037;50.820;6.494;2022-08-16T16:02:50;26.10;47.80
46309;DHT22;32037;50.820;6.494;2022-08-16T16:05:27;26.10;47.60
46309;DHT22;32037;50.820;6.494;2022-08-16T16:07:55;26.10;47.70
46309;DHT22;32037;50.820;6.494;2022-08-16T16:10:38;26.10;47.70
46309;DHT22;32037;50.820;6.494;2022-08-16T16:13:07;26.10;47.60
46309;DHT22;32037;50.820;6.494;2022-08-16T16:15:39;26.10;47.50
46309;DHT22;32037;50.820;6.494;2022-08-16T16:18:11;26.10;47.50
46309;DHT22;32037;50.820;6.494;2022-08-16T16:20:44;26.20;47.60
46309;DHT22;32037;50.820;6.494;2022-08-16T16:23:16;26.20;47.50
46309;DHT22;32037;50.820;6.494;2022-08-16T16:25:50;26.20;47.50
46309;DHT22;32037;50.820;6.494;2022-08-16T16:28:21;26.20;47.50
46309;DHT22;32037;50.820;6.494;2022-08-16T16:31:12;26.20;47.50
46309;DHT22;32037;50.820;6.494;2022-08-16T16:33:45;26.20;48.30